• Join FlightAware (Why Join?)
  • Login
  • US Flag 
11:07PM EST


 

Airport Tracker/Info


-or-


 

Live Flight TrackerFlight Track Log ✈ SWA419 ✈ 21-Apr-2013 ✈ KBWI - KSAT

Flight Track Log - Related Links

Times and Time Zones

All times are in EDT time to prevent confusion due to time zone crossing. See the SWA419 flight status page for this flight to view local times or setup timezone preferences in your user account.

Time Position Orientation Groundspeed Altitude Reporting Facility
EDT Latitude Longitude Course Direction KTS MPH feet Rate Location/Type
02:17PM 39.1667 -76.7167 288° West 169 194 1,500  Level Potomac TRACON
02:18PM 39.1833 -76.7833 288° West 225 259 3,500 2,700 Climbing Potomac TRACON
02:19PM 39.2000 -76.8833 282° West 263 303 7,000 3,480 Climbing Potomac TRACON
02:20PM 39.2167 -76.9833 282° West 275 316 10,600 2,820 Climbing Potomac TRACON
02:21PM 39.2167 -77.1000 270° West 338 389 12,800 2,760 Climbing Potomac TRACON
02:22PM 39.1667 -77.1833 232° Southwest 359 413 16,200 2,940 Climbing Potomac TRACON
02:23PM 39.0372 -77.2725 208° Southwest 352 405 20,600 2,580 Climbing Washington Center
02:24PM 38.9736 -77.3511 224° Southwest 367 422 23,000 1,200 Climbing Washington Center
02:25PM 38.9569 -77.4817 261° West 336 387 23,000  Level Washington Center
02:26PM 38.9378 -77.6278 260° West 366 421 23,100 1,200 Climbing Washington Center
02:27PM 38.9189 -77.7633 260° West 387 445 25,500 1,920 Climbing Washington Center
02:28PM 38.8997 -77.8989 260° West 392 451 27,000 1,560 Climbing Washington Center
02:29PM 38.8803 -78.0369 260° West 392 451 28,700 2,100 Climbing Washington Center
02:30PM 38.8586 -78.1722 258° West 392 451 31,300 2,340 Climbing Washington Center
02:31PM 38.8517 -78.3053 266° West 387 445 33,400 1,620 Climbing Washington Center
02:32PM 38.8483 -78.4383 268° West 382 440 34,600 1,080 Climbing Washington Center
02:33PM 38.8286 -78.5708 259° West 382 440 35,600 1,260 Climbing Washington Center
02:34PM 38.8128 -78.7033 261° West 387 445 37,200 1,200 Climbing Washington Center
02:35PM 38.7947 -78.8306 260° West 381 438 38,000 360 Climbing Washington Center
02:36PM 38.7764 -78.9656 260° West 381 438 38,000  Level Washington Center
02:37PM 38.7603 -79.0953 261° West 381 438 38,000  Level Washington Center
02:38PM 38.7397 -79.2275 259° West 381 438 38,000  Level Washington Center
02:39PM 38.7256 -79.3464 261° West 381 438 38,000  Level Washington Center
02:40PM 38.7067 -79.4786 260° West 381 438 38,000  Level Washington Center
02:41PM 38.6858 -79.6106 259° West 381 438 38,000  Level Washington Center
02:42PM 38.6661 -79.7556 260° West 381 438 38,000  Level Washington Center
02:45PM 38.6172 -80.0575 258° West 368 423 38,000  Level Indianapolis Center
02:46PM 38.5978 -80.1992 260° West 365 420 38,000  Level Indianapolis Center
02:47PM 38.5781 -80.3244 259° West 369 425 38,000  Level Indianapolis Center
02:48PM 38.5553 -80.4692 259° West 372 428 38,000  Level Indianapolis Center
02:49PM 38.5367 -80.6008 260° West 376 433 38,000  Level Indianapolis Center
02:50PM 38.5158 -80.7319 259° West 376 433 38,000  Level Indianapolis Center
02:51PM 38.4944 -80.8642 258° West 380 437 38,000  Level Indianapolis Center
02:52PM 38.4792 -80.9703 260° West 380 437 38,000  Level Indianapolis Center
02:53PM 38.4525 -81.1319 258° West 386 444 38,000  Level Indianapolis Center
02:54PM 38.4314 -81.2661 259° West 384 442 38,000  Level Indianapolis Center
02:55PM 38.4100 -81.4022 259° West 387 445 38,000  Level Indianapolis Center
02:56PM 38.3836 -81.5656 258° West 387 445 38,000  Level Indianapolis Center
02:57PM 38.3622 -81.6992 259° West 383 441 38,000  Level Indianapolis Center
02:58PM 38.3342 -81.8306 255° West 383 441 38,000  Level Indianapolis Center
02:59PM 38.2978 -81.9569 250° West 380 437 38,000  Level Indianapolis Center
03:00PM 38.2619 -82.0844 250° West 381 438 38,000  Level Indianapolis Center
03:01PM 38.2264 -82.2117 250° West 381 438 38,000  Level Indianapolis Center
03:02PM 38.1903 -82.3386 250° West 382 440 38,000  Level Indianapolis Center
03:03PM 38.1531 -82.4661 250° West 383 441 38,000  Level Indianapolis Center
03:04PM 38.1094 -82.6206 250° West 384 442 38,000  Level Indianapolis Center
03:05PM 38.0722 -82.7481 250° West 386 444 38,000  Level Indianapolis Center
03:06PM 38.0344 -82.8753 249° West 386 444 38,000  Level Indianapolis Center
03:07PM 37.9942 -83.0014 248° West 389 448 38,000  Level Indianapolis Center
03:08PM 37.9469 -83.1228 244° Southwest 386 444 38,000  Level Indianapolis Center
03:10PM 37.8922 -83.2661 244° Southwest 387 445 38,000  Level Indianapolis Center
03:11PM 37.8458 -83.3867 244° Southwest 383 441 38,000  Level Indianapolis Center
03:12PM 37.7983 -83.5081 244° Southwest 386 444 38,000  Level Indianapolis Center
03:13PM 37.7517 -83.6289 244° Southwest 384 442 38,000  Level Indianapolis Center
03:14PM 37.7044 -83.7517 244° Southwest 387 445 38,000  Level Indianapolis Center
03:15PM 37.6486 -83.8936 244° Southwest 389 448 38,000  Level Indianapolis Center
03:16PM 37.5997 -84.0150 243° Southwest 389 448 38,000  Level Indianapolis Center
03:17PM 37.5514 -84.1378 244° Southwest 392 451 38,000  Level Indianapolis Center
03:18PM 37.5039 -84.2600 244° Southwest 389 448 38,000  Level Indianapolis Center
03:19PM 37.4544 -84.3828 243° Southwest 393 452 38,000  Level Indianapolis Center
03:20PM 37.3981 -84.5236 243° Southwest 388 447 38,000  Level Indianapolis Center
03:21PM 37.3486 -84.6458 243° Southwest 392 451 38,000  Level Indianapolis Center
03:22PM 37.3000 -84.7681 243° Southwest 390 449 38,000  Level Indianapolis Center
03:23PM 37.2500 -84.8894 243° Southwest 390 449 38,000  Level Indianapolis Center
03:24PM 37.2017 -85.0111 244° Southwest 389 448 38,000  Level Indianapolis Center
03:25PM 37.1419 -85.1533 242° Southwest 393 452 38,000  Level Indianapolis Center
03:26PM 37.0928 -85.2758 243° Southwest 394 453 38,000  Level Indianapolis Center
03:27PM 37.0422 -85.3975 243° Southwest 394 453 38,000  Level Indianapolis Center
03:28PM 36.9883 -85.5303 243° Southwest 397 457 38,000  Level Indianapolis Center
03:29PM 36.9369 -85.6536 242° Southwest 398 458 38,000  Level Indianapolis Center
03:29PM 36.9192 -85.6964 243° Southwest 401 461 38,000  Level Memphis Center
03:30PM 36.8675 -85.8189 242° Southwest 396 456 38,000  Level Memphis Center
03:31PM 36.8178 -85.9433 244° Southwest 401 461 38,000  Level Memphis Center
03:32PM 36.7658 -86.0628 242° Southwest 403 464 38,000  Level Memphis Center
03:33PM 36.7197 -86.1739 243° Southwest 403 464 38,000  Level Memphis Center
03:34PM 36.6694 -86.2931 242° Southwest 396 456 38,000  Level Memphis Center
03:35PM 36.6172 -86.4172 242° Southwest 396 456 38,000  Level Memphis Center
03:36PM 36.5647 -86.5386 242° Southwest 401 461 38,000  Level Memphis Center
03:37PM 36.5122 -86.6622 242° Southwest 401 461 38,000 360 Level Memphis Center
03:38PM 36.4553 -86.7836 240° Southwest 401 461 38,800 840 Climbing Memphis Center
03:39PM 36.3875 -86.8950 233° Southwest 414 476 39,700 600 Climbing Memphis Center
03:40PM 36.3217 -87.0033 233° Southwest 414 476 40,000 120 Climbing Memphis Center
03:41PM 36.2561 -87.1217 236° Southwest 422 486 40,000  Level Memphis Center
03:42PM 36.1858 -87.2350 232° Southwest 412 474 40,000  Level Memphis Center
03:43PM 36.1178 -87.3456 233° Southwest 412 474 40,000  Level Memphis Center
03:44PM 36.0497 -87.4586 233° Southwest 417 480 40,000  Level Memphis Center
03:45PM 35.9833 -87.5711 234° Southwest 417 480 40,000  Level Memphis Center
03:46PM 35.9150 -87.6836 233° Southwest 417 480 40,000  Level Memphis Center
03:47PM 35.8464 -87.7961 233° Southwest 417 480 40,000  Level Memphis Center
03:48PM 35.7717 -87.9161 233° Southwest 417 480 40,000  Level Memphis Center
03:49PM 35.7028 -88.0256 232° Southwest 417 480 40,000  Level Memphis Center
03:50PM 35.6361 -88.1372 234° Southwest 417 480 40,000  Level Memphis Center
03:51PM 35.5753 -88.2283 231° Southwest 406 467 40,000  Level Memphis Center
03:52PM 35.5039 -88.3397 232° Southwest 406 467 40,000  Level Memphis Center
03:53PM 35.4350 -88.4536 233° Southwest 406 467 40,000  Level Memphis Center
03:54PM 35.3636 -88.5722 234° Southwest 406 467 40,000  Level Memphis Center
03:55PM 35.3006 -88.6728 232° Southwest 411 473 40,000  Level Memphis Center
03:56PM 35.2331 -88.7758 231° Southwest 411 473 40,000  Level Memphis Center
03:57PM 35.1633 -88.8864 232° Southwest 411 473 40,000  Level Memphis Center
03:58PM 35.0936 -88.9942 232° Southwest 411 473 40,000  Level Memphis Center
03:59PM 35.0258 -89.0994 232° Southwest 411 473 40,000  Level Memphis Center
04:00PM 34.9583 -89.2119 234° Southwest 411 473 40,000  Level Memphis Center
04:01PM 34.8800 -89.3267 230° Southwest 416 479 40,000  Level Memphis Center
04:02PM 34.8097 -89.4364 232° Southwest 416 479 40,000  Level Memphis Center
04:03PM 34.7375 -89.5458 231° Southwest 416 479 40,000  Level Memphis Center
04:04PM 34.6653 -89.6578 232° Southwest 422 486 40,000  Level Memphis Center
04:05PM 34.5969 -89.7692 233° Southwest 422 486 40,000  Level Memphis Center
04:06PM 34.5347 -89.8656 232° Southwest 416 479 40,000  Level Memphis Center
04:07PM 34.4642 -89.9742 232° Southwest 416 479 40,000  Level Memphis Center
04:08PM 34.3936 -90.0828 232° Southwest 416 479 40,000  Level Memphis Center
04:09PM 34.3250 -90.1911 233° Southwest 416 479 40,000  Level Memphis Center
04:10PM 34.2542 -90.2969 231° Southwest 416 479 40,000  Level Memphis Center
04:11PM 34.1789 -90.4125 232° Southwest 416 479 40,000  Level Memphis Center
04:12PM 34.1100 -90.5178 232° Southwest 416 479 40,000  Level Memphis Center
04:13PM 34.0389 -90.6253 233° Southwest 414 476 40,000  Level Memphis Center
04:14PM 34.0167 -90.6000 233° Southwest  Level FlightAware Approximate
04:14PM 33.9697 -90.7278 231° Southwest 414 476 40,000  Level Memphis Center
04:15PM 33.8983 -90.8328 231° Southwest 414 476 40,000  Level Memphis Center
04:16PM 33.8269 -90.9397 231° Southwest 414 476 40,000  Level Memphis Center
04:17PM 33.7575 -91.0442 231° Southwest 413 475 40,000  Level Memphis Center
04:18PM 33.6861 -91.1511 231° Southwest 413 475 40,000  Level Memphis Center
04:19PM 33.6186 -91.2503 231° Southwest 407 468 40,000  Level Memphis Center
04:20PM 33.5489 -91.3542 231° Southwest 407 468 40,000  Level Memphis Center
04:22PM 33.4247 -91.5478 232° Southwest 385 443 40,000  Level Fort Worth Center
04:23PM 33.3525 -91.6494 230° Southwest 392 451 40,000  Level Fort Worth Center
04:24PM 33.2819 -91.7508 230° Southwest 397 457 40,000  Level Fort Worth Center
04:25PM 33.2114 -91.8522 230° Southwest 397 457 40,000  Level Fort Worth Center
04:26PM 33.1386 -91.9558 230° Southwest 397 457 40,000  Level Fort Worth Center
04:27PM 33.0719 -92.0567 232° Southwest 397 457 40,000  Level Fort Worth Center
04:28PM 33.0011 -92.1550 229° Southwest 397 457 40,000  Level Fort Worth Center
04:29PM 32.9322 -92.2556 231° Southwest 397 457 40,000  Level Fort Worth Center
04:30PM 32.8592 -92.3586 230° Southwest 397 457 40,000  Level Fort Worth Center
04:31PM 32.7881 -92.4592 230° Southwest 397 457 40,000  Level Fort Worth Center
04:32PM 32.7169 -92.5617 231° Southwest 397 457 40,000  Level Fort Worth Center
04:33PM 32.6417 -92.6669 230° Southwest 404 465 40,000  Level Fort Worth Center
04:34PM 32.5722 -92.7667 230° Southwest 404 465 40,000  Level Fort Worth Center
04:35PM 32.5008 -92.8689 230° Southwest 404 465 40,000  Level Fort Worth Center
04:36PM 32.4272 -92.9736 230° Southwest 409 471 40,000  Level Fort Worth Center
04:37PM 32.3558 -93.0803 232° Southwest 416 479 40,000  Level Fort Worth Center
04:38PM 32.2800 -93.1772 227° Southwest 404 465 40,000  Level Fort Worth Center
04:39PM 32.2061 -93.2814 230° Southwest 404 465 40,000  Level Fort Worth Center
04:40PM 32.1344 -93.3878 232° Southwest 409 471 40,000  Level Fort Worth Center
04:41PM 32.0586 -93.4939 230° Southwest 414 476 40,000  Level Fort Worth Center
04:42PM 31.9864 -93.5950 230° Southwest 414 476 40,000  Level Fort Worth Center
04:43PM 31.9142 -93.6933 229° Southwest 408 470 40,000  Level Fort Worth Center
04:44PM 31.8461 -93.7917 231° Southwest 408 470 40,000  Level Fort Worth Center
04:45PM 31.7694 -93.8897 227° Southwest 408 470 40,000  Level Fort Worth Center
04:47PM 31.6481 -94.0575 230° Southwest 394 453 40,000  Level Houston Center
04:48PM 31.5625 -94.1750 230° Southwest 394 453 40,000  Level Houston Center
04:49PM 31.4894 -94.2733 229° Southwest 398 458 40,000  Level Houston Center
04:50PM 31.4169 -94.3728 230° Southwest 401 461 40,000  Level Houston Center
04:51PM 31.3436 -94.4725 229° Southwest 402 463 40,000  Level Houston Center
04:52PM 31.2697 -94.5714 229° Southwest 401 461 40,000  Level Houston Center
04:54PM 31.1897 -94.6819 230° Southwest 407 468 40,000  Level Houston Center
04:55PM 31.1078 -94.7731 224° Southwest 425 489 40,000  Level Houston Center
04:56PM 31.0253 -94.8642 223° Southwest 413 475 40,000  Level Houston Center
04:57PM 30.9419 -94.9539 223° Southwest 408 470 40,000  Level Houston Center
04:58PM 30.8425 -95.0614 223° Southwest 406 467 40,000  Level Houston Center
04:59PM 30.7597 -95.1500 223° Southwest 404 465 40,000  Level Houston Center
05:00PM 30.6775 -95.2372 222° Southwest 402 463 40,000  Level Houston Center
05:01PM 30.5956 -95.3256 223° Southwest 400 460 40,000  Level Houston Center
05:02PM 30.5136 -95.4125 222° Southwest 399 459 40,000  Level Houston Center
05:03PM 30.4208 -95.5097 222° Southwest 398 458 40,000  Level Houston Center
05:04PM 30.3400 -95.5969 223° Southwest 399 459 40,000  Level Houston Center
05:05PM 30.2586 -95.6817 222° Southwest 396 456 40,000  Level Houston Center
05:06PM 30.1786 -95.7661 222° Southwest 392 451 40,000  Level Houston Center
05:07PM 30.0978 -95.8500 222° Southwest 394 453 40,000  Level Houston Center
05:08PM 30.0000 -95.9519 222° Southwest 396 456 40,000  Level Houston Center
05:09PM 29.9231 -96.0325 222° Southwest 394 453 40,000  Level Houston Center
05:10PM 29.8414 -96.1178 222° Southwest 395 455 40,000  Level Houston Center
05:11PM 29.8067 -96.2219 249° West 361 415 40,000  Level Houston Center
05:12PM 29.8156 -96.3592 274° West 359 413 40,000 -180 Level Houston Center
05:13PM 29.8233 -96.4747 274° West 362 417 39,700 -1,260 Descending Houston Center
05:14PM 29.8303 -96.5869 274° West 356 410 37,400 -2,280 Descending Houston Center
05:15PM 29.8358 -96.6983 273° West 352 405 35,100 -2,220 Descending Houston Center
05:16PM 29.8419 -96.8067 274° West 345 397 32,900 -2,280 Descending Houston Center
05:17PM 29.8494 -96.9344 274° West 336 387 30,500 -2,160 Descending Houston Center
05:18PM 29.8556 -97.0403 274° West 335 386 28,500 -1,980 Descending Houston Center
05:19PM 29.8606 -97.1439 273° West 328 377 26,500 -1,920 Descending Houston Center
05:21PM 29.8635 -97.2815 271° West  Level FlightAware Approximate
05:21PM 29.8711 -97.3428 271° West 311 358 22,700  Level Houston Center
05:22PM 29.8781 -97.4569 274° West 300 345 20,500 -1,920 Descending Houston Center
05:24PM 29.8825 -97.5525 273° West 294 338 18,800 -1,680 Descending Houston Center
05:24PM 29.8839 -97.5789 273° West 291 335 18,300 -1,800 Descending Houston Center
05:25PM 29.8875 -97.6492 273° West 284 327 17,000 -1,740 Descending Houston Center
05:25PM 29.8878 -97.6822 271° West 279 321 16,400 -1,680 Descending Houston Center
05:26PM 29.8914 -97.7364 274° West 275 316 15,300 -1,800 Descending Houston Center
05:26PM 29.8922 -97.7708 272° West 273 314 14,600 -1,860 Descending Houston Center
05:27PM 29.8953 -97.8303 273° West 273 314 13,400 -1,260 Descending Houston Center
05:28PM 29.8728 -97.9197 254° West 298 343 12,500 -1,020 Descending Houston Center
05:29PM 29.8347 -98.0114 244° Southwest 295 339 11,400 -1,020 Descending Houston Center
05:30PM 29.7997 -98.0931 244° Southwest 288 331 10,400 -1,020 Descending Houston Center
05:30PM 29.7906 -98.1161 245° Southwest 284 327 10,100 -1,080 Descending Houston Center
05:31PM 29.7650 -98.1753 244° Southwest 267 307 9,300 -1,140 Descending Houston Center
05:31PM 29.7581 -98.1925 245° Southwest 263 303 9,000 -1,020 Descending Houston Center
05:32PM 29.7331 -98.2508 244° Southwest 262 302 8,300 -1,020 Descending Houston Center
05:33PM 29.7000 -98.3294 244° Southwest 256 295 7,200 -1,020 Descending Houston Center
05:34PM 29.6683 -98.4019 243° Southwest 255 293 6,200 -1,020 Descending Houston Center
05:35PM 29.6547 -98.4842 259° West 261 300 5,100 -840 Descending Houston Center
05:36PM 29.6853 -98.5444 300° West 240 276 4,500 -960 Descending Houston Center
05:37PM 29.6342 -98.5833 213° Southwest 211 243 3,200 -1,020 Descending Houston Center
05:38PM 29.5992 -98.5583 148° Southeast 203 234 2,500 -900 Descending Houston Center
05:39PM 29.5631 -98.5144 133° Southeast 145 167 1,400 -840 Descending Houston Center
05:40PM 29.5419 -98.4825 127° Southeast 133 153 800 -600 Descending Houston Center
05:42PM 29.5340 -98.4691 205° Southwest  Level Estimated
05:49PM 29.5333 -98.4667 16° North  Level FlightAware Approximate